createdAt,value
2023-09-24T00:00:28.485Z,15.53
2023-09-24T00:03:32.524Z,15.62
2023-09-24T00:06:35.131Z,15.55
2023-09-24T00:09:37.971Z,15.56
2023-09-24T00:12:40.321Z,15.58
2023-09-24T00:15:42.582Z,15.58
2023-09-24T00:18:44.840Z,15.62
2023-09-24T00:21:50.260Z,15.53
2023-09-24T00:24:52.558Z,15.57
2023-09-24T00:27:55.887Z,15.57
2023-09-24T00:30:59.527Z,15.56
2023-09-24T00:34:01.832Z,15.66
2023-09-24T00:37:04.103Z,15.69
2023-09-24T00:40:10.790Z,15.72
2023-09-24T00:43:45.778Z,15.63
2023-09-24T00:46:48.223Z,15.61
2023-09-24T00:49:51.247Z,15.69
2023-09-24T00:52:54.851Z,15.70
2023-09-24T00:55:58.001Z,15.78
2023-09-24T00:59:00.384Z,15.79
2023-09-24T01:02:03.701Z,15.65
2023-09-24T01:05:06.596Z,15.59
2023-09-24T01:08:08.941Z,15.58
2023-09-24T01:11:11.291Z,15.55
2023-09-24T01:14:14.508Z,15.43
2023-09-24T01:17:18.406Z,15.32
2023-09-24T01:20:23.043Z,15.19
2023-09-24T01:23:25.401Z,15.25
2023-09-24T01:26:28.630Z,15.14
2023-09-24T01:29:31.149Z,15.31
2023-09-24T01:32:33.629Z,15.34
2023-09-24T01:35:36.531Z,15.29
2023-09-24T01:38:43.036Z,15.23
2023-09-24T01:41:46.608Z,15.18
2023-09-24T01:44:49.178Z,15.19
2023-09-24T01:47:52.045Z,15.19
2023-09-24T01:50:54.483Z,15.17
2023-09-24T01:53:59.199Z,15.15
2023-09-24T01:57:01.531Z,15.26
2023-09-24T02:00:12.669Z,15.23
2023-09-24T02:03:15.046Z,15.23
2023-09-24T02:06:17.448Z,15.27
2023-09-24T02:09:19.643Z,15.22
2023-09-24T02:12:23.200Z,14.94
2023-09-24T02:15:26.329Z,14.89
2023-09-24T02:18:33.839Z,14.84
2023-09-24T02:21:37.569Z,14.95
2023-09-24T02:24:41.456Z,15.03
2023-09-24T02:27:43.811Z,15.10
2023-09-24T02:30:47.291Z,14.95
2023-09-24T02:33:49.860Z,14.81
2023-09-24T02:36:54.210Z,14.77
2023-09-24T02:39:56.492Z,14.84
2023-09-24T02:43:03.093Z,14.69
2023-09-24T02:46:06.840Z,14.51
2023-09-24T02:49:09.622Z,14.50
2023-09-24T02:52:12.873Z,14.52
2023-09-24T02:55:16.593Z,14.56
2023-09-24T02:58:19.267Z,14.58
2023-09-24T03:01:21.988Z,14.69
2023-09-24T03:04:24.448Z,14.68
2023-09-24T03:07:26.775Z,14.75
2023-09-24T03:10:31.272Z,14.72
2023-09-24T03:13:33.508Z,14.73
2023-09-24T03:16:35.912Z,14.70
2023-09-24T03:19:38.142Z,14.77
2023-09-24T03:22:40.403Z,14.87
2023-09-24T03:25:42.744Z,14.91
2023-09-24T03:28:45.111Z,14.91
2023-09-24T03:31:47.516Z,15.02
2023-09-24T03:34:49.840Z,14.86
2023-09-24T03:37:52.798Z,14.97
2023-09-24T03:40:55.235Z,15.09
2023-09-24T03:43:57.560Z,15.15
2023-09-24T03:46:59.801Z,15.32
2023-09-24T03:50:03.196Z,15.27
2023-09-24T03:53:05.514Z,15.20
2023-09-24T03:56:08.701Z,15.08
2023-09-24T03:59:10.910Z,14.99
2023-09-24T04:02:13.193Z,14.97
2023-09-24T04:05:19.252Z,14.92
2023-09-24T04:08:21.923Z,15.03
2023-09-24T04:11:24.301Z,15.05
2023-09-24T04:14:27.160Z,14.97
2023-09-24T04:17:29.908Z,15.07
2023-09-24T04:20:34.628Z,15.07
2023-09-24T04:23:37.196Z,14.96
2023-09-24T04:26:39.513Z,14.87
2023-09-24T04:29:41.785Z,14.84
2023-09-24T04:32:53.128Z,14.86
2023-09-24T04:35:56.046Z,14.84
2023-09-24T04:38:58.355Z,14.79
2023-09-24T04:42:00.743Z,14.75
2023-09-24T04:45:03.347Z,14.91
2023-09-24T04:48:06.408Z,14.93
2023-09-24T04:51:08.895Z,14.88
2023-09-24T04:54:11.136Z,14.94
2023-09-24T04:57:13.345Z,14.94
2023-09-24T05:00:17.346Z,15.03
2023-09-24T05:03:20.307Z,14.94
2023-09-24T05:06:23.014Z,14.84
2023-09-24T05:09:27.439Z,14.87
2023-09-24T05:12:30.865Z,14.89
2023-09-24T05:15:33.178Z,14.94
2023-09-24T05:18:35.498Z,14.87
2023-09-24T05:21:37.796Z,14.88
2023-09-24T05:24:40.055Z,14.96
2023-09-24T05:27:42.326Z,15.10
2023-09-24T05:30:44.601Z,15.16
2023-09-24T05:33:48.501Z,15.14
2023-09-24T05:36:51.328Z,15.11
2023-09-24T05:39:53.696Z,15.16
2023-09-24T05:42:55.887Z,15.18
2023-09-24T05:45:58.246Z,15.31
2023-09-24T05:49:01.513Z,15.32
2023-09-24T05:52:04.742Z,15.52
2023-09-24T05:55:08.007Z,15.46
2023-09-24T05:58:10.533Z,15.41
2023-09-24T06:01:18.979Z,15.39
2023-09-24T06:04:21.624Z,15.36
2023-09-24T06:07:26.134Z,15.38
2023-09-24T06:10:28.462Z,15.45
2023-09-24T06:13:30.750Z,15.46
2023-09-24T06:16:33.101Z,15.38
2023-09-24T06:19:35.507Z,15.24
2023-09-24T06:22:37.752Z,15.28
2023-09-24T06:25:39.946Z,15.33
2023-09-24T06:28:47.690Z,15.42
2023-09-24T06:31:55.299Z,15.40
2023-09-24T06:34:57.561Z,15.48
2023-09-24T06:38:00.310Z,15.46
2023-09-24T06:41:03.979Z,15.46
2023-09-24T06:44:06.580Z,15.47
2023-09-24T06:47:08.840Z,15.56
2023-09-24T06:50:11.786Z,15.50
2023-09-24T06:53:14.036Z,15.49
2023-09-24T06:56:16.240Z,15.43
2023-09-24T06:59:18.458Z,15.44
2023-09-24T07:02:20.715Z,15.39
2023-09-24T07:05:23.077Z,15.29
2023-09-24T07:08:25.913Z,15.21
2023-09-24T07:11:32.397Z,15.17
2023-09-24T07:14:34.763Z,15.17
2023-09-24T07:17:37.153Z,15.10
2023-09-24T07:20:40.980Z,15.03
2023-09-24T07:23:43.282Z,15.09
2023-09-24T07:26:45.705Z,15.04
2023-09-24T07:29:48.239Z,14.96
2023-09-24T07:32:51.450Z,14.94
2023-09-24T07:35:53.976Z,14.93
2023-09-24T07:38:56.335Z,14.98
2023-09-24T07:41:58.762Z,14.97
2023-09-24T07:45:01.030Z,14.92
2023-09-24T07:48:11.148Z,14.83
2023-09-24T07:51:13.789Z,14.79
2023-09-24T07:54:16.927Z,14.82
2023-09-24T07:57:19.452Z,14.81
2023-09-24T08:00:21.663Z,14.81
2023-09-24T08:03:24.309Z,14.82
2023-09-24T08:06:29.771Z,14.83
2023-09-24T08:09:32.185Z,14.83
2023-09-24T08:12:35.815Z,14.72
2023-09-24T08:15:38.205Z,14.63
2023-09-24T08:18:41.401Z,14.56
2023-09-24T08:21:43.674Z,14.60
2023-09-24T08:24:45.897Z,14.57
2023-09-24T08:27:49.179Z,14.52
2023-09-24T08:30:51.480Z,14.52
2023-09-24T08:33:54.148Z,14.53
2023-09-24T08:36:56.520Z,14.66
2023-09-24T08:39:58.724Z,14.70
2023-09-24T08:43:06.137Z,14.82
2023-09-24T08:46:09.907Z,14.84
2023-09-24T08:49:13.795Z,14.79
2023-09-24T08:52:18.646Z,14.76
2023-09-24T08:55:20.874Z,14.76
2023-09-24T08:58:24.258Z,14.77
2023-09-24T09:01:26.495Z,14.81
2023-09-24T09:04:28.794Z,14.78
2023-09-24T09:07:31.722Z,14.85
2023-09-24T09:10:38.259Z,14.87
2023-09-24T09:13:44.309Z,14.83
2023-09-24T09:16:58.216Z,14.90
2023-09-24T09:20:01.305Z,14.94
2023-09-24T09:23:03.935Z,15.00
2023-09-24T09:26:06.180Z,14.96
2023-09-24T09:29:21.483Z,14.90
2023-09-24T09:32:37.123Z,14.99
2023-09-24T09:35:39.493Z,15.08
2023-09-24T09:38:41.996Z,15.07
2023-09-24T09:41:45.060Z,15.25
2023-09-24T09:44:50.622Z,15.20
2023-09-24T09:48:04.812Z,15.07
2023-09-24T09:51:08.810Z,15.14
2023-09-24T09:54:12.455Z,15.23
2023-09-24T09:57:14.762Z,15.23
2023-09-24T10:00:17.991Z,15.25
2023-09-24T10:03:21.583Z,15.22
2023-09-24T10:06:24.422Z,15.21
2023-09-24T10:09:31.101Z,15.22
2023-09-24T10:12:36.051Z,15.24
2023-09-24T10:15:38.244Z,15.29
2023-09-24T10:18:57.026Z,15.29
2023-09-24T10:22:32.828Z,15.37
2023-09-24T10:25:35.874Z,15.50
2023-09-24T10:28:49.029Z,15.54
2023-09-24T10:32:10.622Z,15.46
2023-09-24T10:35:12.924Z,15.32
2023-09-24T10:38:17.255Z,15.38
2023-09-24T10:41:19.693Z,15.40
2023-09-24T10:44:25.647Z,15.39
2023-09-24T10:47:30.335Z,15.49
2023-09-24T10:50:32.758Z,15.54
2023-09-24T10:53:35.007Z,15.46
2023-09-24T10:56:37.304Z,15.46
2023-09-24T10:59:39.599Z,15.60
2023-09-24T11:02:44.134Z,15.70
2023-09-24T11:05:50.434Z,15.76
2023-09-24T11:08:53.074Z,15.77
2023-09-24T11:11:55.383Z,15.81
2023-09-24T11:15:14.158Z,15.78
2023-09-24T11:18:17.888Z,15.75
2023-09-24T11:21:20.975Z,15.75
2023-09-24T11:24:23.873Z,15.78
2023-09-24T11:27:26.382Z,15.95
2023-09-24T11:30:49.136Z,16.03
2023-09-24T11:33:56.429Z,16.07
2023-09-24T11:36:59.276Z,16.04
2023-09-24T11:40:01.513Z,15.85
2023-09-24T11:43:21.531Z,15.73
2023-09-24T11:46:29.340Z,15.75
2023-09-24T11:49:31.615Z,15.81
2023-09-24T11:52:34.091Z,15.81
2023-09-24T11:55:36.664Z,15.85
2023-09-24T11:58:39.236Z,15.94
2023-09-24T12:01:41.662Z,16.21
2023-09-24T12:04:44.063Z,16.13
2023-09-24T12:07:49.372Z,16.19
2023-09-24T12:10:52.458Z,16.28
2023-09-24T12:13:57.598Z,16.27
2023-09-24T12:16:59.870Z,16.12
2023-09-24T12:20:06.165Z,16.11
2023-09-24T12:23:09.470Z,16.11
2023-09-24T12:26:11.722Z,16.20
2023-09-24T12:29:14.172Z,16.32
2023-09-24T12:32:16.408Z,16.43
2023-09-24T12:35:18.888Z,16.28
2023-09-24T12:38:21.161Z,16.29
2023-09-24T12:41:23.337Z,16.26
2023-09-24T12:44:25.895Z,16.17
2023-09-24T12:47:34.232Z,16.05
2023-09-24T12:50:36.927Z,16.11
2023-09-24T12:53:42.192Z,16.03
2023-09-24T12:56:44.719Z,15.98
2023-09-24T12:59:49.435Z,15.97
2023-09-24T13:02:52.917Z,16.05
2023-09-24T13:05:55.540Z,16.08
2023-09-24T13:08:57.834Z,15.98
2023-09-24T13:12:00.122Z,15.98
2023-09-24T13:15:03.548Z,15.95
2023-09-24T13:18:06.563Z,16.01
2023-09-24T13:21:09.141Z,16.08
2023-09-24T13:24:11.648Z,16.06
2023-09-24T13:27:14.058Z,16.08
2023-09-24T13:30:16.506Z,16.15
2023-09-24T13:33:19.144Z,16.19
2023-09-24T13:36:22.739Z,16.21
2023-09-24T13:39:25.389Z,16.30
2023-09-24T13:42:27.857Z,16.20
2023-09-24T13:45:31.171Z,16.17
2023-09-24T13:48:34.413Z,16.06
2023-09-24T13:51:42.668Z,16.16
2023-09-24T13:54:44.953Z,16.15
2023-09-24T13:57:47.390Z,16.14
2023-09-24T14:00:53.029Z,16.18
2023-09-24T14:03:56.975Z,16.21
2023-09-24T14:06:59.210Z,16.25
2023-09-24T14:10:36.850Z,16.34
2023-09-24T14:13:39.308Z,16.31
2023-09-24T14:16:48.787Z,16.30
2023-09-24T14:19:54.733Z,16.26
2023-09-24T14:22:57.216Z,16.26
2023-09-24T14:25:59.657Z,16.22
2023-09-24T14:29:03.304Z,16.31
2023-09-24T14:32:05.973Z,16.36
2023-09-24T14:35:08.712Z,16.27
2023-09-24T14:38:11.007Z,16.24
2023-09-24T14:41:13.242Z,16.21
2023-09-24T14:44:16.645Z,16.23
2023-09-24T14:47:19.153Z,16.19
2023-09-24T14:50:21.364Z,16.24
2023-09-24T14:53:23.756Z,16.27
2023-09-24T14:56:27.902Z,16.21
2023-09-24T14:59:30.194Z,16.17
2023-09-24T15:02:32.494Z,16.21
2023-09-24T15:05:34.756Z,16.23
2023-09-24T15:08:37.672Z,16.27
2023-09-24T15:11:40.914Z,16.22
2023-09-24T15:14:43.248Z,16.14
2023-09-24T15:17:46.746Z,16.19
2023-09-24T15:20:50.635Z,16.23
2023-09-24T15:23:53.215Z,16.25
2023-09-24T15:26:55.500Z,16.24
2023-09-24T15:29:59.390Z,16.37
2023-09-24T15:33:02.315Z,16.30
2023-09-24T15:36:05.833Z,16.25
2023-09-24T15:39:08.890Z,16.32
2023-09-24T15:42:11.292Z,16.27
2023-09-24T15:45:13.990Z,16.26
2023-09-24T15:48:16.680Z,16.11
2023-09-24T15:51:20.810Z,16.12
2023-09-24T15:54:24.106Z,16.13
2023-09-24T15:57:26.641Z,16.10
2023-09-24T16:00:29.329Z,16.02
2023-09-24T16:03:33.453Z,16.02
2023-09-24T16:06:35.879Z,16.03
2023-09-24T16:09:38.160Z,16.05
2023-09-24T16:12:40.658Z,16.11
2023-09-24T16:15:43.633Z,16.12
2023-09-24T16:18:45.914Z,16.14
2023-09-24T16:21:51.243Z,16.08
2023-09-24T16:24:54.940Z,16.10
2023-09-24T16:27:57.253Z,16.08
2023-09-24T16:31:04.255Z,16.03
2023-09-24T16:34:06.762Z,16.16
2023-09-24T16:37:08.994Z,16.13
2023-09-24T16:40:12.716Z,16.14
2023-09-24T16:43:14.930Z,16.06
2023-09-24T16:46:17.296Z,16.06
2023-09-24T16:49:19.595Z,15.91
2023-09-24T16:52:25.295Z,15.83
2023-09-24T16:55:27.526Z,15.84
2023-09-24T16:58:30.001Z,15.95
2023-09-24T17:01:34.414Z,16.04
2023-09-24T17:04:37.611Z,15.95
2023-09-24T17:07:40.440Z,15.87
2023-09-24T17:10:52.147Z,15.94
2023-09-24T17:13:54.616Z,15.93
2023-09-24T17:16:57.895Z,15.94
2023-09-24T17:20:00.667Z,15.93
2023-09-24T17:23:03.718Z,15.92
2023-09-24T17:26:19.471Z,15.89
2023-09-24T17:29:25.134Z,15.94
2023-09-24T17:32:30.177Z,15.91
2023-09-24T17:35:34.428Z,16.00
2023-09-24T17:38:37.045Z,16.00
2023-09-24T17:41:42.896Z,16.07
2023-09-24T17:44:45.556Z,16.04
2023-09-24T17:47:49.829Z,16.03
2023-09-24T17:50:52.238Z,16.08
2023-09-24T17:53:54.842Z,16.02
2023-09-24T17:56:57.316Z,16.02
2023-09-24T17:59:59.874Z,16.20
2023-09-24T18:03:02.533Z,16.17
2023-09-24T18:06:05.645Z,16.11
2023-09-24T18:09:08.276Z,16.07
2023-09-24T18:12:10.915Z,15.98
2023-09-24T18:15:16.210Z,15.92
2023-09-24T18:18:23.124Z,15.87
2023-09-24T18:21:28.540Z,15.82
2023-09-24T18:24:34.531Z,15.70
2023-09-24T18:27:37.320Z,15.64
2023-09-24T18:30:39.823Z,15.52
2023-09-24T18:33:42.964Z,15.41
2023-09-24T18:36:45.947Z,15.33
2023-09-24T18:39:48.917Z,15.33
2023-09-24T18:42:51.388Z,15.36
2023-09-24T18:45:57.292Z,15.45
2023-09-24T18:48:59.820Z,15.41
2023-09-24T18:52:05.064Z,15.31
2023-09-24T18:55:07.860Z,15.23
2023-09-24T18:58:10.255Z,15.29
2023-09-24T19:01:13.305Z,15.24
2023-09-24T19:04:16.062Z,15.26
2023-09-24T19:07:19.381Z,15.31
2023-09-24T19:10:22.249Z,15.21
2023-09-24T19:13:30.068Z,15.25
2023-09-24T19:16:32.998Z,15.24
2023-09-24T19:19:38.112Z,15.30
2023-09-24T19:22:41.812Z,15.34
2023-09-24T19:25:45.113Z,15.41
2023-09-24T19:28:47.469Z,15.39
2023-09-24T19:31:52.111Z,15.32
2023-09-24T19:34:54.795Z,15.26
2023-09-24T19:38:00.381Z,15.26
2023-09-24T19:41:04.174Z,15.36
2023-09-24T19:44:06.861Z,15.42
2023-09-24T19:47:09.717Z,15.52
2023-09-24T19:50:12.774Z,15.49
2023-09-24T19:53:15.121Z,15.39
2023-09-24T19:56:17.810Z,15.23
2023-09-24T19:59:20.312Z,15.17
2023-09-24T20:02:22.822Z,15.16
2023-09-24T20:05:25.067Z,15.27
2023-09-24T20:08:32.478Z,15.30
2023-09-24T20:11:35.668Z,15.23
2023-09-24T20:14:38.685Z,15.19
2023-09-24T20:17:40.925Z,15.18
2023-09-24T20:20:46.244Z,15.21
2023-09-24T20:23:48.513Z,15.20
2023-09-24T20:26:52.877Z,15.16
2023-09-24T20:29:55.375Z,15.02
2023-09-24T20:32:57.664Z,14.99
2023-09-24T20:36:00.944Z,14.99
2023-09-24T20:39:07.411Z,15.03
2023-09-24T20:42:10.216Z,15.01
2023-09-24T20:45:15.728Z,15.04
2023-09-24T20:48:19.476Z,15.11
2023-09-24T20:51:21.842Z,15.11
2023-09-24T20:54:24.262Z,15.12
2023-09-24T20:57:26.562Z,15.18
2023-09-24T21:00:34.603Z,15.18
2023-09-24T21:03:37.075Z,15.21
2023-09-24T21:06:39.375Z,15.22
2023-09-24T21:09:41.788Z,15.22
2023-09-24T21:12:44.101Z,15.24
2023-09-24T21:15:46.347Z,15.23
2023-09-24T21:18:48.861Z,15.20
2023-09-24T21:21:51.296Z,15.13
2023-09-24T21:24:54.614Z,15.15
2023-09-24T21:27:59.981Z,15.15
2023-09-24T21:31:03.730Z,15.15
2023-09-24T21:34:09.357Z,15.15
2023-09-24T21:37:16.619Z,15.14
2023-09-24T21:40:18.935Z,15.17
2023-09-24T21:43:21.898Z,15.18
2023-09-24T21:46:24.530Z,15.11
2023-09-24T21:49:26.861Z,15.11
2023-09-24T21:52:29.086Z,15.15
2023-09-24T21:55:31.353Z,15.20
2023-09-24T21:58:33.621Z,15.24
2023-09-24T22:01:35.896Z,15.21
2023-09-24T22:04:38.958Z,15.15
2023-09-24T22:07:41.323Z,15.20
2023-09-24T22:10:43.649Z,15.18
2023-09-24T22:13:45.920Z,15.17
2023-09-24T22:16:48.898Z,15.20
2023-09-24T22:19:51.151Z,15.17
2023-09-24T22:22:53.372Z,15.11
2023-09-24T22:25:59.783Z,15.10
2023-09-24T22:29:03.835Z,15.09
2023-09-24T22:32:06.115Z,15.07
2023-09-24T22:35:13.171Z,15.06
2023-09-24T22:38:15.366Z,15.11
2023-09-24T22:41:17.613Z,15.11
2023-09-24T22:44:19.889Z,15.10
2023-09-24T22:47:22.289Z,15.10
2023-09-24T22:50:24.907Z,15.08
2023-09-24T22:53:27.262Z,15.08
2023-09-24T22:56:29.524Z,15.00
2023-09-24T22:59:31.709Z,15.00
2023-09-24T23:02:33.930Z,15.03
2023-09-24T23:05:40.925Z,15.02
2023-09-24T23:08:43.223Z,15.08
2023-09-24T23:11:45.937Z,15.03
2023-09-24T23:14:48.166Z,15.05
2023-09-24T23:17:52.167Z,15.03
2023-09-24T23:20:54.463Z,15.04
2023-09-24T23:23:56.745Z,15.05
2023-09-24T23:26:58.929Z,15.03
2023-09-24T23:30:01.197Z,15.06
2023-09-24T23:33:03.709Z,15.01
2023-09-24T23:36:06.087Z,14.96
2023-09-24T23:39:13.653Z,15.00
2023-09-24T23:42:16.059Z,14.96
2023-09-24T23:45:18.828Z,14.93
2023-09-24T23:48:21.108Z,14.94
2023-09-24T23:51:23.334Z,14.98
2023-09-24T23:54:25.789Z,14.96
2023-09-24T23:57:28.223Z,15.04
